Time;durP1;ratioP1;P1;durP2;ratioP2;P2;SDS_P1;SDS_P2;PMS_P1;PMS_P2;Temp;Humidity;BMP_temperature;BMP_pressure;BME280_temperature;BME280_humidity;BME280_pressure;Samples;Min_cycle;Max_cycle;Signal;HPM_P1;HPM_P2
2022/12/25 00:01:34;;;;;;;;;;;;;;;10.25;67.42;100825.69;5340406;32;33760;-76
2022/12/25 00:04:36;;;;;;;;;;;;;;;10.32;67.32;100831.62;5326282;32;34513;-75
2022/12/25 00:07:38;;;;;;;;;;;;;;;10.57;66.77;100835.19;5338112;32;33728;-67
2022/12/25 00:10:40;;;;;;;;;;;;;;;10.65;66.53;100848.94;5324051;32;33975;-81
2022/12/25 00:13:46;;;;;;;;;;;;;;;10.89;64.78;100831.53;5325459;32;36060;-69
2022/12/25 00:16:48;;;;;;;;;;;;;;;10.69;65.46;100842.69;5341397;32;34325;-67
2022/12/25 00:19:50;;;;;;;;;;;;;;;10.59;65.54;100830.75;5324202;32;33876;-81
2022/12/25 00:22:52;;;;;;;;;;;;;;;10.69;65.57;100834.81;5328259;32;34563;-68
2022/12/25 00:25:54;;;;;;;;;;;;;;;10.98;64.54;100848.75;5324463;32;34314;-81
2022/12/25 00:28:56;;;;;;;;;;;;;;;11.10;64.07;100857.09;5326653;32;33229;-74
2022/12/25 00:31:58;;;;;;;;;;;;;;;10.92;64.57;100859.47;5322606;32;34875;-81
2022/12/25 00:35:00;;;;;;;;;;;;;;;10.58;65.91;100864.06;5322041;32;33944;-70
2022/12/25 00:38:02;;;;;;;;;;;;;;;10.78;65.63;100871.31;5339024;32;34111;-78
2022/12/25 00:41:05;;;;;;;;;;;;;;;11.01;64.75;100880.19;5324347;32;33840;-81
2022/12/25 00:44:08;;;;;;;;;;;;;;;10.32;66.17;100876.28;5339525;32;34298;-67
2022/12/25 00:47:09;;;;;;;;;;;;;;;10.56;65.85;100873.75;5324303;32;34331;-81
2022/12/25 00:50:11;;;;;;;;;;;;;;;10.64;65.76;100878.78;5332773;32;34509;-81
2022/12/25 00:53:13;;;;;;;;;;;;;;;10.61;65.85;100884.13;5313497;32;33674;-81
2022/12/25 00:56:16;;;;;;;;;;;;;;;10.50;65.81;100888.88;5324191;32;34632;-67
2022/12/25 00:59:18;;;;;;;;;;;;;;;10.88;64.34;100895.50;5340993;32;45072;-81
2022/12/25 01:02:23;;;;;;;;;;;;;;;11.06;63.78;100896.69;5323685;32;34896;-67
2022/12/25 01:05:25;;;;;;;;;;;;;;;11.22;63.56;100892.66;5340761;32;33196;-67
2022/12/25 01:08:29;;;;;;;;;;;;;;;10.87;64.49;100896.44;5324190;32;33345;-82
2022/12/25 01:11:31;;;;;;;;;;;;;;;10.58;65.62;100894.72;5333618;32;35902;-84
2022/12/25 01:14:33;;;;;;;;;;;;;;;10.29;66.80;100900.84;5333160;32;33705;-67
2022/12/25 01:17:35;;;;;;;;;;;;;;;10.36;66.64;100891.88;5324710;32;33823;-81
2022/12/25 01:20:36;;;;;;;;;;;;;;;10.50;66.08;100900.22;5339458;32;34560;-67
2022/12/25 01:23:38;;;;;;;;;;;;;;;10.24;67.04;100903.66;5323352;32;33154;-68
2022/12/25 01:26:40;;;;;;;;;;;;;;;10.34;67.08;100904.22;5341640;32;33341;-81
2022/12/25 01:29:42;;;;;;;;;;;;;;;10.46;66.91;100908.25;5323517;32;33651;-82
2022/12/25 01:32:44;;;;;;;;;;;;;;;10.51;66.61;100920.34;5330757;32;31497;-67
2022/12/25 01:35:46;;;;;;;;;;;;;;;10.45;66.45;100919.69;5326949;32;45635;-67
2022/12/25 01:38:48;;;;;;;;;;;;;;;10.40;66.89;100905.81;5309992;32;33855;-69
2022/12/25 01:41:50;;;;;;;;;;;;;;;10.63;66.08;100905.97;5340214;32;33280;-83
2022/12/25 01:44:52;;;;;;;;;;;;;;;10.57;65.78;100921.94;5323885;32;33959;-69
2022/12/25 01:47:54;;;;;;;;;;;;;;;10.67;64.92;100928.63;5341001;32;34794;-68
2022/12/25 01:50:57;;;;;;;;;;;;;;;10.24;66.15;100932.53;5308781;32;33320;-67
2022/12/25 01:54:00;;;;;;;;;;;;;;;10.81;64.53;100917.66;5326898;32;34012;-67
2022/12/25 01:57:03;;;;;;;;;;;;;;;10.81;64.05;100918.50;5332492;32;34834;-82
2022/12/25 02:00:05;;;;;;;;;;;;;;;10.54;65.04;100906.25;5328260;32;34434;-82
2022/12/25 02:03:07;;;;;;;;;;;;;;;10.64;64.98;100907.69;5339697;32;34145;-69
2022/12/25 02:06:10;;;;;;;;;;;;;;;10.60;65.21;100911.31;5320373;32;33676;-68
2022/12/25 02:09:11;;;;;;;;;;;;;;;10.51;64.96;100916.88;5340436;32;34789;-67
2022/12/25 02:12:16;;;;;;;;;;;;;;;10.44;65.08;100907.44;5324062;32;34000;-67
2022/12/25 02:15:19;;;;;;;;;;;;;;;10.25;65.44;100910.63;5330097;32;46759;-67
2022/12/25 02:18:41;;;;;;;;;;;;;;;10.29;64.99;100906.97;5335585;32;34129;-80
2022/12/25 02:21:43;;;;;;;;;;;;;;;10.31;65.60;100917.47;5323895;32;34613;-82
2022/12/25 02:24:54;;;;;;;;;;;;;;;10.35;64.91;100905.06;5339426;32;34463;-68
2022/12/25 02:28:14;;;;;;;;;;;;;;;10.35;65.21;100912.97;5322634;32;45619;-67
2022/12/25 02:31:31;;;;;;;;;;;;;;;10.26;65.50;100912.34;5323507;32;43324;-82
2022/12/25 02:34:47;;;;;;;;;;;;;;;10.50;63.82;100923.88;5338217;32;33744;-81
2022/12/25 02:37:50;;;;;;;;;;;;;;;9.98;66.00;100925.37;5320098;32;45927;-68
2022/12/25 02:40:56;;;;;;;;;;;;;;;10.13;65.10;100936.34;5339876;32;33535;-68
2022/12/25 03:07:26;;;;;;;;;;;;;;;9.77;67.01;100962.69;5339791;32;44756;-68
2022/12/25 03:13:49;;;;;;;;;;;;;;;9.93;66.94;100966.66;5327864;32;44391;-67
2022/12/25 03:16:52;;;;;;;;;;;;;;;10.48;65.24;100964.25;5339538;32;34256;-67
2022/12/25 03:26:55;;;;;;;;;;;;;;;9.05;69.52;100974.12;5325153;32;34572;-80
2022/12/25 03:33:36;;;;;;;;;;;;;;;9.81;68.35;100968.75;5337447;32;45308;-68
2022/12/25 03:37:18;;;;;;;;;;;;;;;10.09;66.99;100971.47;5322890;32;45264;-68
2022/12/25 04:37:31;;;;;;;;;;;;;;;9.57;68.19;101010.47;5342014;32;33703;-68
2022/12/25 04:40:33;;;;;;;;;;;;;;;9.67;67.51;101009.34;5324959;32;33873;-67
2022/12/25 04:43:34;;;;;;;;;;;;;;;9.98;66.94;100980.53;5334317;32;33197;-67
2022/12/25 04:46:36;;;;;;;;;;;;;;;8.82;70.91;100993.88;5332903;32;33903;-76
2022/12/25 04:49:39;;;;;;;;;;;;;;;8.85;71.11;100991.19;5325564;32;34846;-68
2022/12/25 04:52:41;;;;;;;;;;;;;;;9.93;67.35;100971.91;5322582;32;34751;-68
2022/12/25 04:55:42;;;;;;;;;;;;;;;10.20;65.40;100991.28;5322431;32;33930;-82
2022/12/25 04:58:45;;;;;;;;;;;;;;;9.51;68.37;100992.25;5340770;32;33370;-82
2022/12/25 05:01:47;;;;;;;;;;;;;;;9.31;68.09;101008.47;5322001;32;45423;-67
2022/12/25 05:04:49;;;;;;;;;;;;;;;9.73;67.67;101003.06;5317576;32;34137;-82
2022/12/25 05:07:51;;;;;;;;;;;;;;;9.62;67.29;101003.34;5334303;32;34634;-81
2022/12/25 05:10:53;;;;;;;;;;;;;;;9.18;68.68;101010.53;5323239;32;33313;-68
2022/12/25 05:13:55;;;;;;;;;;;;;;;10.04;66.07;101008.34;5341114;32;33898;-67
2022/12/25 05:16:57;;;;;;;;;;;;;;;9.93;66.43;101015.69;5323604;32;33197;-68
2022/12/25 05:19:59;;;;;;;;;;;;;;;9.71;66.85;101028.47;5338843;32;34262;-75
2022/12/25 05:23:01;;;;;;;;;;;;;;;9.74;66.48;101028.41;5324099;32;33981;-66
2022/12/25 05:26:06;;;;;;;;;;;;;;;10.00;65.52;101019.87;5330233;32;33521;-67
2022/12/25 05:29:08;;;;;;;;;;;;;;;9.91;65.71;101012.22;5332675;32;34831;-68
2022/12/25 05:32:10;;;;;;;;;;;;;;;9.37;66.74;101012.72;5318997;32;32631;-83
2022/12/25 05:35:12;;;;;;;;;;;;;;;8.59;69.44;101012.72;5338015;32;34051;-68
2022/12/25 05:38:14;;;;;;;;;;;;;;;8.56;70.51;101018.00;5320540;32;33567;-67
2022/12/25 05:41:15;;;;;;;;;;;;;;;8.81;69.62;101020.13;5339607;32;34474;-81
2022/12/25 05:44:17;;;;;;;;;;;;;;;9.20;68.34;101026.22;5321535;32;43361;-67
2022/12/25 05:47:19;;;;;;;;;;;;;;;9.28;67.61;101036.56;5328786;32;34277;-83
2022/12/25 05:50:21;;;;;;;;;;;;;;;9.08;67.99;101034.38;5326363;32;34762;-67
2022/12/25 05:53:23;;;;;;;;;;;;;;;8.90;68.72;101041.75;5310674;32;34584;-67
2022/12/25 05:56:25;;;;;;;;;;;;;;;9.11;66.98;101031.69;5340585;32;33810;-68
2022/12/25 05:59:31;;;;;;;;;;;;;;;8.88;68.01;101053.16;5324246;32;34545;-67
2022/12/25 06:02:34;;;;;;;;;;;;;;;9.25;66.90;101055.84;5340221;32;33240;-80
2022/12/25 06:05:37;;;;;;;;;;;;;;;8.63;68.31;101058.94;5321952;32;34085;-67
2022/12/25 06:08:40;;;;;;;;;;;;;;;8.36;68.72;101048.97;5317333;32;33437;-68
2022/12/25 06:11:42;;;;;;;;;;;;;;;7.95;70.22;101039.25;5337477;32;34919;-66
2022/12/25 06:14:44;;;;;;;;;;;;;;;7.89;71.53;101048.09;5321300;32;33852;-67
2022/12/25 06:17:46;;;;;;;;;;;;;;;8.28;70.21;101045.62;5340549;32;34396;-81
2022/12/25 06:20:48;;;;;;;;;;;;;;;8.56;67.73;101038.09;5320518;32;44697;-80
2022/12/25 06:23:49;;;;;;;;;;;;;;;8.19;69.89;101048.44;5338722;32;34614;-68
2022/12/25 06:26:51;;;;;;;;;;;;;;;7.58;72.08;101042.50;5321691;32;33481;-81
2022/12/25 06:29:53;;;;;;;;;;;;;;;7.74;71.30;101056.22;5322017;32;33937;-82
2022/12/25 06:32:55;;;;;;;;;;;;;;;7.50;73.28;101057.47;5321650;32;34588;-81
2022/12/25 06:35:57;;;;;;;;;;;;;;;7.63;72.52;101063.38;5317214;32;34426;-82
2022/12/25 06:38:59;;;;;;;;;;;;;;;7.52;72.83;101073.97;5338022;32;32692;-81
2022/12/25 06:42:01;;;;;;;;;;;;;;;7.48;73.34;101070.56;5324113;32;33236;-75
2022/12/25 06:45:03;;;;;;;;;;;;;;;7.22;74.02;101070.09;5341742;32;33839;-81
2022/12/25 06:48:06;;;;;;;;;;;;;;;7.86;72.39;101069.09;5327614;32;33549;-81
2022/12/25 06:51:07;;;;;;;;;;;;;;;8.17;70.93;101071.13;5313417;32;34353;-82
2022/12/25 06:54:10;;;;;;;;;;;;;;;8.04;70.92;101081.81;5336380;32;33799;-66
2022/12/25 06:57:11;;;;;;;;;;;;;;;8.22;70.46;101080.66;5311934;32;33114;-67
2022/12/25 07:00:14;;;;;;;;;;;;;;;8.38;69.57;101084.75;5342918;32;33782;-81
2022/12/25 07:03:16;;;;;;;;;;;;;;;8.38;69.98;101091.75;5324740;32;33311;-67
2022/12/25 07:06:18;;;;;;;;;;;;;;;8.09;70.73;101093.09;5341529;32;44906;-69
2022/12/25 07:09:20;;;;;;;;;;;;;;;8.50;69.73;101091.53;5325927;32;33740;-81
2022/12/25 07:12:23;;;;;;;;;;;;;;;8.17;70.65;101097.31;5326892;32;35607;-75
2022/12/25 07:15:24;;;;;;;;;;;;;;;8.86;68.39;101099.53;5342271;32;34425;-68
2022/12/25 07:18:26;;;;;;;;;;;;;;;8.79;67.65;101114.50;5326251;32;33944;-81
2022/12/25 07:21:28;;;;;;;;;;;;;;;8.38;69.90;101128.41;5342245;32;33224;-67
2022/12/25 07:24:30;;;;;;;;;;;;;;;9.18;67.60;101125.94;5324836;32;34498;-68
2022/12/25 07:27:32;;;;;;;;;;;;;;;8.81;69.44;101135.44;5338072;32;34868;-81
2022/12/25 07:30:34;;;;;;;;;;;;;;;9.10;68.90;101134.87;5311213;32;34439;-81
2022/12/25 07:33:36;;;;;;;;;;;;;;;9.39;68.19;101142.09;5306999;32;33745;-67
2022/12/25 07:36:38;;;;;;;;;;;;;;;9.64;66.96;101140.62;5336929;32;34136;-67
2022/12/25 07:39:40;;;;;;;;;;;;;;;9.32;68.55;101136.13;5322217;32;33740;-82
2022/12/25 07:42:42;;;;;;;;;;;;;;;9.32;68.72;101143.13;5341653;32;34051;-67
2022/12/25 07:45:44;;;;;;;;;;;;;;;9.63;67.66;101154.66;5323598;32;34537;-68
2022/12/25 07:48:46;;;;;;;;;;;;;;;9.95;65.80;101155.66;5339990;32;34082;-82
2022/12/25 07:51:48;;;;;;;;;;;;;;;9.50;67.20;101159.31;5307154;32;45118;-68
2022/12/25 07:54:50;;;;;;;;;;;;;;;9.58;67.32;101142.53;5324340;32;33560;-68
2022/12/25 07:57:51;;;;;;;;;;;;;;;9.62;68.03;101157.31;5327223;32;33964;-81
2022/12/25 08:00:54;;;;;;;;;;;;;;;9.59;68.17;101154.75;5310405;32;33518;-68
2022/12/25 08:03:57;;;;;;;;;;;;;;;10.01;67.41;101171.28;5341537;32;33158;-82
2022/12/25 08:06:59;;;;;;;;;;;;;;;10.18;67.03;101169.09;5325064;32;34614;-81
2022/12/25 08:10:01;;;;;;;;;;;;;;;9.46;67.22;101167.28;5337689;32;33286;-67
2022/12/25 08:13:03;;;;;;;;;;;;;;;9.78;67.74;101175.28;5327815;32;33880;-67
2022/12/25 08:16:13;;;;;;;;;;;;;;;9.95;66.69;101172.28;5325012;32;33409;-81
2022/12/25 08:19:15;;;;;;;;;;;;;;;10.42;65.40;101175.50;5342101;32;34301;-67
2022/12/25 08:22:16;;;;;;;;;;;;;;;10.67;62.88;101175.72;5322370;32;44715;-68
2022/12/25 08:25:18;;;;;;;;;;;;;;;10.20;64.39;101169.06;5341668;32;34472;-68
2022/12/25 08:28:20;;;;;;;;;;;;;;;10.00;64.90;101175.66;5310617;32;34399;-81
2022/12/25 08:31:23;;;;;;;;;;;;;;;10.01;65.74;101179.16;5333914;32;33957;-81
2022/12/25 08:34:25;;;;;;;;;;;;;;;10.22;65.42;101183.00;5329026;32;34620;-67
2022/12/25 08:37:30;;;;;;;;;;;;;;;10.50;65.09;101188.47;5322186;32;35107;-68
2022/12/25 08:40:32;;;;;;;;;;;;;;;10.59;64.94;101190.84;5341178;32;34901;-68
2022/12/25 08:43:34;;;;;;;;;;;;;;;10.21;66.28;101194.44;5309558;32;33239;-76
2022/12/25 08:46:38;;;;;;;;;;;;;;;10.52;65.00;101186.66;5340563;32;34479;-81
2022/12/25 08:49:40;;;;;;;;;;;;;;;10.56;64.89;101189.19;5323833;32;35038;-82
2022/12/25 08:52:42;;;;;;;;;;;;;;;10.12;66.91;101199.91;5308563;32;33993;-82
2022/12/25 08:55:44;;;;;;;;;;;;;;;10.49;65.16;101195.47;5334875;32;34674;-82
2022/12/25 08:58:46;;;;;;;;;;;;;;;10.76;64.51;101195.69;5322887;32;44918;-82
2022/12/25 09:01:48;;;;;;;;;;;;;;;10.73;64.64;101191.34;5341969;32;34245;-81
2022/12/25 09:04:50;;;;;;;;;;;;;;;10.30;65.51;101197.72;5320984;32;32837;-70
2022/12/25 09:07:52;;;;;;;;;;;;;;;10.79;64.14;101199.06;5339412;32;34282;-82
2022/12/25 09:10:55;;;;;;;;;;;;;;;9.60;68.42;101199.37;5323927;32;33418;-67
2022/12/25 09:13:56;;;;;;;;;;;;;;;9.45;69.24;101204.94;5330342;32;33024;-82
2022/12/25 09:16:58;;;;;;;;;;;;;;;10.27;66.73;101197.78;5337195;32;34588;-81
2022/12/25 09:20:00;;;;;;;;;;;;;;;10.35;66.72;101199.37;5324814;32;34471;-76
2022/12/25 09:23:02;;;;;;;;;;;;;;;10.94;64.74;101189.87;5343310;32;34820;-82
2022/12/25 09:26:13;;;;;;;;;;;;;;;11.33;63.01;101185.28;5322965;32;34724;-67
2022/12/25 09:29:16;;;;;;;;;;;;;;;11.23;62.22;101196.97;5340375;32;34079;-81
2022/12/25 09:32:18;;;;;;;;;;;;;;;11.27;63.03;101193.34;5318680;32;45210;-82
2022/12/25 09:35:20;;;;;;;;;;;;;;;11.39;62.13;101195.59;5323999;32;34101;-82
2022/12/25 09:38:22;;;;;;;;;;;;;;;11.39;61.22;101200.00;5339872;32;33876;-82
2022/12/25 09:41:24;;;;;;;;;;;;;;;11.98;59.45;101192.09;5322984;32;33260;-82
2022/12/25 09:44:37;;;;;;;;;;;;;;;11.77;59.93;101188.31;5341764;32;33887;-69
2022/12/25 09:47:39;;;;;;;;;;;;;;;11.42;61.34;101193.81;5321879;32;33930;-81
2022/12/25 09:50:41;;;;;;;;;;;;;;;11.48;61.63;101196.25;5328146;32;33765;-68
2022/12/25 09:53:44;;;;;;;;;;;;;;;11.69;60.89;101192.97;5318452;32;35309;-67
2022/12/25 09:56:46;;;;;;;;;;;;;;;11.62;61.49;101186.16;5321512;32;44065;-68
2022/12/25 09:59:50;;;;;;;;;;;;;;;11.83;61.01;101193.41;5340086;32;35004;-82
2022/12/25 10:02:58;;;;;;;;;;;;;;;11.44;62.88;101194.59;5322609;32;34288;-82
2022/12/25 10:06:16;;;;;;;;;;;;;;;11.90;61.33;101188.81;5340061;32;34403;-82
2022/12/25 10:09:33;;;;;;;;;;;;;;;12.28;60.24;101186.72;5321777;32;45077;-67
2022/12/25 10:12:35;;;;;;;;;;;;;;;12.57;58.90;101183.97;5321492;32;34503;-67
2022/12/25 10:15:57;;;;;;;;;;;;;;;12.17;60.18;101187.94;5341075;32;33902;-74
2022/12/25 10:19:03;;;;;;;;;;;;;;;12.29;60.66;101181.38;5319651;32;33703;-69
2022/12/25 10:22:20;;;;;;;;;;;;;;;12.80;59.55;101177.84;5340695;32;33975;-81
2022/12/25 10:25:22;;;;;;;;;;;;;;;12.42;59.89;101180.06;5326509;32;45081;-67
2022/12/25 10:28:25;;;;;;;;;;;;;;;13.06;58.68;101173.41;5324961;32;33369;-68
2022/12/25 10:31:28;;;;;;;;;;;;;;;13.23;58.41;101173.69;5338434;32;33328;-68
2022/12/25 10:34:31;;;;;;;;;;;;;;;13.75;56.51;101169.03;5321091;32;34058;-75
2022/12/25 10:37:33;;;;;;;;;;;;;;;13.71;57.08;101164.78;5341327;32;34502;-82
2022/12/25 10:40:44;;;;;;;;;;;;;;;13.71;56.59;101156.84;5326952;32;33732;-68
2022/12/25 10:43:50;;;;;;;;;;;;;;;14.13;55.13;101153.41;5338281;32;33719;-82
2022/12/25 10:46:55;;;;;;;;;;;;;;;14.20;54.96;101158.38;5328454;32;44691;-68
2022/12/25 10:49:58;;;;;;;;;;;;;;;13.93;56.11;101157.72;5325155;32;34326;-67
2022/12/25 10:53:03;;;;;;;;;;;;;;;14.02;56.05;101154.69;5320075;32;34675;-69
2022/12/25 10:56:05;;;;;;;;;;;;;;;14.56;54.19;101158.63;5323981;32;33856;-82
2022/12/25 10:59:08;;;;;;;;;;;;;;;14.92;52.97;101151.75;5341321;32;33299;-82
2022/12/25 11:02:14;;;;;;;;;;;;;;;14.49;54.17;101157.19;5324041;32;34497;-81
2022/12/25 11:05:35;;;;;;;;;;;;;;;14.60;54.09;101149.63;5331485;32;44559;-83
2022/12/25 11:08:37;;;;;;;;;;;;;;;14.64;54.08;101150.34;5328161;32;34558;-75
2022/12/25 11:11:39;;;;;;;;;;;;;;;14.86;53.50;101139.66;5326143;32;34047;-68
2022/12/25 11:14:50;;;;;;;;;;;;;;;14.49;54.12;101140.41;5339048;32;33750;-82
2022/12/25 11:17:52;;;;;;;;;;;;;;;15.12;52.61;101127.88;5326286;32;44854;-82
2022/12/25 11:20:58;;;;;;;;;;;;;;;14.81;53.04;101128.41;5337313;32;35505;-68
2022/12/25 11:24:03;;;;;;;;;;;;;;;15.16;52.61;101126.81;5329110;32;33638;-82
2022/12/25 11:27:05;;;;;;;;;;;;;;;15.23;52.13;101119.47;5322121;32;33197;-82
2022/12/25 11:30:09;;;;;;;;;;;;;;;15.11;51.84;101111.16;5342485;32;33924;-68
2022/12/25 11:33:16;;;;;;;;;;;;;;;15.77;50.04;101115.13;5317878;32;43220;-83
2022/12/25 11:36:27;;;;;;;;;;;;;;;16.24;49.62;101103.00;5336847;32;34680;-68
2022/12/25 11:39:39;;;;;;;;;;;;;;;16.43;48.12;101113.53;5325121;32;33297;-68
2022/12/25 11:42:43;;;;;;;;;;;;;;;17.67;45.49;101109.44;5322848;32;33284;-82
2022/12/25 11:45:49;;;;;;;;;;;;;;;17.26;45.08;101109.97;5341463;32;33151;-84
2022/12/25 11:48:56;;;;;;;;;;;;;;;17.44;44.89;101109.88;5324072;32;44918;-68
2022/12/25 11:51:58;;;;;;;;;;;;;;;17.98;42.52;101108.56;5320773;32;36532;-82
2022/12/25 11:55:02;;;;;;;;;;;;;;;17.85;43.39;101102.25;5323046;32;34584;-83
2022/12/25 11:58:30;;;;;;;;;;;;;;;19.13;40.78;101096.25;5336362;32;33221;-70
2022/12/25 12:01:33;;;;;;;;;;;;;;;19.64;38.87;101091.19;5338340;32;34680;-67
2022/12/25 12:04:37;;;;;;;;;;;;;;;20.54;36.89;101087.75;5322142;32;33792;-83
2022/12/25 12:07:49;;;;;;;;;;;;;;;22.07;34.90;101088.16;5343811;32;33912;-83
2022/12/25 12:11:16;;;;;;;;;;;;;;;23.61;30.78;101080.44;5326212;32;45368;-69
2022/12/25 12:14:21;;;;;;;;;;;;;;;25.12;28.36;101083.56;5314742;32;44580;-69
2022/12/25 12:17:23;;;;;;;;;;;;;;;24.86;28.18;101074.25;5342903;32;33881;-69
2022/12/25 12:20:28;;;;;;;;;;;;;;;24.82;27.55;101067.44;5324341;32;33775;-77
2022/12/25 12:23:32;;;;;;;;;;;;;;;25.34;26.52;101071.72;5343098;32;33435;-84
2022/12/25 12:26:36;;;;;;;;;;;;;;;25.15;27.34;101074.37;5326757;32;33813;-69
2022/12/25 12:29:39;;;;;;;;;;;;;;;26.17;26.22;101078.41;5337739;32;33904;-84
2022/12/25 12:32:42;;;;;;;;;;;;;;;27.22;24.01;101069.28;5323834;32;33924;-83
2022/12/25 12:35:44;;;;;;;;;;;;;;;26.38;24.45;101088.16;5321770;32;34140;-70
2022/12/25 12:38:46;;;;;;;;;;;;;;;24.17;27.48;101087.41;5341426;32;33817;-68
2022/12/25 12:41:48;;;;;;;;;;;;;;;22.47;30.15;101093.16;5325744;32;44908;-68
2022/12/25 12:44:49;;;;;;;;;;;;;;;21.12;33.14;101096.97;5341318;32;33778;-83
2022/12/25 12:47:51;;;;;;;;;;;;;;;20.22;35.12;101100.63;5327503;32;34193;-83
2022/12/25 12:51:04;;;;;;;;;;;;;;;19.57;36.55;101097.84;5326658;32;34570;-83
2022/12/25 12:54:16;;;;;;;;;;;;;;;18.12;39.37;101113.91;5324150;32;34302;-83
2022/12/25 12:57:24;;;;;;;;;;;;;;;17.28;41.90;101115.19;5323532;32;44736;-69
2022/12/25 13:00:27;;;;;;;;;;;;;;;17.29;42.01;101109.78;5339385;32;32994;-77
2022/12/25 13:03:35;;;;;;;;;;;;;;;17.58;41.04;101115.25;5322743;32;33802;-84
2022/12/25 13:06:37;;;;;;;;;;;;;;;16.93;42.53;101114.44;5342052;32;34260;-76
2022/12/25 13:09:57;;;;;;;;;;;;;;;15.98;44.84;101122.03;5324890;32;34422;-82
2022/12/25 13:13:00;;;;;;;;;;;;;;;16.66;43.44;101122.91;5325649;32;34133;-69
2022/12/25 13:16:02;;;;;;;;;;;;;;;16.22;44.71;101126.06;5341738;32;34487;-68
2022/12/25 13:19:05;;;;;;;;;;;;;;;15.58;46.48;101120.41;5323499;32;33507;-83
2022/12/25 13:22:18;;;;;;;;;;;;;;;16.40;45.04;101118.13;5338938;32;34493;-68
2022/12/25 13:25:21;;;;;;;;;;;;;;;16.34;45.15;101118.44;5321696;32;45263;-69
2022/12/25 13:28:30;;;;;;;;;;;;;;;15.42;47.36;101115.88;5329256;32;33789;-67
2022/12/25 13:31:32;;;;;;;;;;;;;;;15.86;46.97;101117.34;5336363;32;34814;-77
2022/12/25 13:34:37;;;;;;;;;;;;;;;16.19;46.44;101118.28;5320949;32;33424;-77
2022/12/25 13:37:39;;;;;;;;;;;;;;;16.25;46.27;101122.41;5308091;32;987382;-82
2022/12/25 13:42:04;;;;;;;;;;;;;;;16.18;46.12;101129.84;5324630;32;34204;-69
2022/12/25 13:44:14;;;;;;;;;;;;;;;16.33;45.81;101117.56;5332842;32;33399;-83
2022/12/25 13:47:21;;;;;;;;;;;;;;;16.52;44.95;101113.03;5334248;32;43723;-69
2022/12/25 13:50:24;;;;;;;;;;;;;;;15.93;45.93;101116.94;5318166;32;33471;-83
2022/12/25 13:53:26;;;;;;;;;;;;;;;15.90;46.35;101119.72;5325723;32;33397;-67
2022/12/25 13:56:28;;;;;;;;;;;;;;;15.61;47.32;101128.22;5324289;32;33443;-69
2022/12/25 13:59:30;;;;;;;;;;;;;;;15.12;48.76;101128.75;5339154;32;34376;-68
2022/12/25 14:02:35;;;;;;;;;;;;;;;15.30;48.40;101128.81;5323281;32;33571;-83
2022/12/25 14:05:38;;;;;;;;;;;;;;;16.15;46.98;101132.63;5325840;32;33301;-83
2022/12/25 14:08:44;;;;;;;;;;;;;;;16.83;45.73;101126.53;5337806;32;34362;-85
2022/12/25 14:11:48;;;;;;;;;;;;;;;17.98;43.12;101127.16;5324083;32;33937;-68
2022/12/25 14:14:50;;;;;;;;;;;;;;;18.05;42.37;101120.53;5338231;32;44929;-81
2022/12/25 14:17:52;;;;;;;;;;;;;;;16.40;46.14;101128.72;5324370;32;34536;-68
2022/12/25 14:20:56;;;;;;;;;;;;;;;16.32;46.67;101137.09;5339493;32;33822;-68
2022/12/25 14:23:57;;;;;;;;;;;;;;;16.28;47.51;101139.97;5318607;32;34528;-68
2022/12/25 14:27:03;;;;;;;;;;;;;;;15.95;47.89;101132.78;5320178;32;33749;-69
2022/12/25 14:30:05;;;;;;;;;;;;;;;16.28;47.81;101130.22;5338767;32;34418;-68
2022/12/25 14:33:08;;;;;;;;;;;;;;;15.39;50.30;101139.88;5317913;32;34438;-83
2022/12/25 14:36:11;;;;;;;;;;;;;;;14.97;51.84;101148.00;5334841;32;33765;-69
2022/12/25 14:39:22;;;;;;;;;;;;;;;15.04;52.01;101149.41;5321254;32;33912;-69
2022/12/25 14:42:28;;;;;;;;;;;;;;;14.47;53.81;101148.44;5332617;32;44694;-68
2022/12/25 14:45:39;;;;;;;;;;;;;;;14.69;53.70;101142.22;5333569;32;34263;-83
2022/12/25 14:48:42;;;;;;;;;;;;;;;14.88;53.12;101156.34;5314485;32;33698;-82
2022/12/25 14:51:44;;;;;;;;;;;;;;;14.32;54.93;101157.00;5318912;32;34227;-68
2022/12/25 14:54:53;;;;;;;;;;;;;;;14.85;54.33;101145.87;5320247;32;43568;-81
2022/12/25 14:58:03;;;;;;;;;;;;;;;14.92;54.64;101147.31;5338130;32;34370;-83
2022/12/25 15:01:05;;;;;;;;;;;;;;;14.91;55.07;101153.56;5323842;32;34265;-67
2022/12/25 15:04:10;;;;;;;;;;;;;;;14.79;55.91;101154.09;5323223;32;34825;-84
2022/12/25 15:07:27;;;;;;;;;;;;;;;14.86;56.25;101155.53;5343225;32;33212;-82
2022/12/25 15:10:29;;;;;;;;;;;;;;;14.69;57.00;101158.94;5326758;32;34516;-76
2022/12/25 15:13:51;;;;;;;;;;;;;;;14.57;57.60;101160.34;5331307;32;48063;-83
2022/12/25 15:16:54;;;;;;;;;;;;;;;14.26;58.63;101157.25;5326094;32;33969;-70
2022/12/25 15:19:56;;;;;;;;;;;;;;;14.07;59.57;101160.66;5323613;32;33219;-82
2022/12/25 15:22:58;;;;;;;;;;;;;;;13.14;62.20;101161.69;5341278;32;33341;-68
2022/12/25 15:26:20;;;;;;;;;;;;;;;13.64;61.50;101161.53;5324739;32;46309;-84
2022/12/25 15:29:22;;;;;;;;;;;;;;;13.74;60.49;101165.53;5339394;32;33303;-68
2022/12/25 15:32:44;;;;;;;;;;;;;;;13.70;60.76;101165.72;5322186;32;34225;-81
2022/12/25 15:35:46;;;;;;;;;;;;;;;13.51;61.46;101152.34;5321426;32;46286;-81
2022/12/25 15:38:48;;;;;;;;;;;;;;;13.76;60.69;101165.47;5339524;32;35157;-69
2022/12/25 15:45:16;;;;;;;;;;;;;;;13.66;61.02;101162.34;5341949;32;33802;-82
2022/12/25 15:48:18;;;;;;;;;;;;;;;13.64;60.94;101176.50;5323285;32;43002;-68
2022/12/25 15:51:20;;;;;;;;;;;;;;;13.27;62.09;101177.94;5318025;32;33491;-69
2022/12/25 15:54:22;;;;;;;;;;;;;;;13.59;60.83;101170.53;5330267;32;34551;-83
2022/12/25 15:57:25;;;;;;;;;;;;;;;13.41;61.25;101162.44;5325351;32;33332;-82
2022/12/25 16:00:27;;;;;;;;;;;;;;;13.45;60.95;101160.50;5342540;32;33945;-69
2022/12/25 16:03:29;;;;;;;;;;;;;;;13.08;61.96;101150.50;5324361;32;35040;-68
2022/12/25 16:06:31;;;;;;;;;;;;;;;12.69;63.03;101172.97;5338832;32;33633;-69
2022/12/25 16:09:32;;;;;;;;;;;;;;;12.54;64.73;101170.88;5309742;32;33692;-68
2022/12/25 16:12:34;;;;;;;;;;;;;;;12.49;64.37;101178.06;5332984;32;34508;-70
2022/12/25 16:15:36;;;;;;;;;;;;;;;12.73;63.87;101168.44;5338299;32;34643;-83
2022/12/25 16:18:38;;;;;;;;;;;;;;;12.82;63.16;101165.50;5322878;32;32429;-82
2022/12/25 16:21:48;;;;;;;;;;;;;;;12.85;62.50;101165.37;5340518;32;45196;-67
2022/12/25 16:24:50;;;;;;;;;;;;;;;13.31;61.43;101168.13;5328720;32;34183;-82
2022/12/25 16:27:52;;;;;;;;;;;;;;;13.28;61.51;101151.47;5337131;32;33934;-83
2022/12/25 16:30:54;;;;;;;;;;;;;;;12.40;64.54;101155.53;5309647;32;33962;-69
2022/12/25 16:33:56;;;;;;;;;;;;;;;12.75;63.25;101156.06;5325180;32;34054;-83
2022/12/25 16:36:58;;;;;;;;;;;;;;;12.04;65.15;101160.25;5332772;32;34120;-68
2022/12/25 16:40:00;;;;;;;;;;;;;;;13.45;60.73;101145.53;5323300;32;34076;-69
2022/12/25 16:43:02;;;;;;;;;;;;;;;12.46;64.21;101142.13;5341288;32;34580;-67
2022/12/25 16:46:07;;;;;;;;;;;;;;;12.53;62.70;101149.81;5323355;32;33865;-83
2022/12/25 16:49:09;;;;;;;;;;;;;;;12.28;64.44;101152.44;5326617;32;34562;-82
2022/12/25 16:52:11;;;;;;;;;;;;;;;12.05;64.36;101153.22;5306429;32;34179;-83
2022/12/25 16:55:13;;;;;;;;;;;;;;;12.77;61.64;101145.47;5329182;32;34527;-69
2022/12/25 16:58:15;;;;;;;;;;;;;;;12.71;61.36;101141.28;5336144;32;34166;-68
2022/12/25 17:01:18;;;;;;;;;;;;;;;13.03;60.81;101137.47;5323020;32;44652;-68
2022/12/25 17:04:20;;;;;;;;;;;;;;;12.77;60.95;101141.06;5341273;32;34520;-82
2022/12/25 17:07:22;;;;;;;;;;;;;;;13.44;59.34;101137.69;5322376;32;34409;-69
2022/12/25 17:10:24;;;;;;;;;;;;;;;12.89;60.88;101135.34;5339803;32;34015;-68
2022/12/25 17:13:26;;;;;;;;;;;;;;;12.82;60.96;101138.25;5326121;32;33890;-81
2022/12/25 17:16:29;;;;;;;;;;;;;;;13.34;58.99;101133.69;5326520;32;34765;-69
2022/12/25 17:19:31;;;;;;;;;;;;;;;13.18;59.55;101133.38;5338469;32;34624;-82
2022/12/25 17:22:33;;;;;;;;;;;;;;;13.38;58.79;101144.06;5323661;32;33624;-69
2022/12/25 17:25:35;;;;;;;;;;;;;;;13.26;59.15;101144.53;5339925;32;33252;-69